Denmark, Georgia
Current Conditions -  °F | °C
As of 7:35 PM on Sunday 21 Dec 2014 (Local Time) from KCWV Reporting Station
Drizzle Drizzle  
Wind Chill: 46°   Ceiling: 600
Heat Index: 46°   Visibility: 7mi
Dew Point: 46°   Wind: 0mph
Humidity: 100%   Direction: NA
Pressure: 30.12"   Gusts: NA
Location:  32.2794°N, 81.623°W
Report Text: KCWV 220035Z AUTO 00000KT 7SM DZ BKN006 OVC010 08/08 A3012 RMK AO2 LTG DSNT N
Loading
Personal Weather Stations






























Interactive Weather Map New forecast layout! Learn more

10-Day Weather Forecast

Advertisements
Track Severe Weather on mobile